JNA511 RKSS-RKPC
Flight info
| Callsign | JNA511 |
|---|---|
| Flight time | N/A |
| Altitude | 24000 |
| Route | BULTI Y711 DOTOL |
| Aircraft | B738/M-V/N |
Departure
| Time | 2026-04-30 07:12 |
|---|---|
| Airport | Gimpo International Airport (RKSS) |
Arrival
| Time | N/A |
|---|---|
| Airport | Jeju International Airport (RKPC) |
| Time | Latitude | Longitude | Altitude | Speed | Heading |
|---|---|---|---|---|---|
| 2026-04-30 06:42 | 37.55763 | 126.80323 | 69 ft | 0 kts | 45° |
| 2026-04-30 06:47 | 37.55756 | 126.80315 | 69 ft | 2 kts | 45° |
| 2026-04-30 06:47 | 37.55746 | 126.80302 | 69 ft | 2 kts | 45° |
| 2026-04-30 06:48 | 37.55735 | 126.80288 | 69 ft | 2 kts | 45° |
| 2026-04-30 06:48 | 37.55725 | 126.80275 | 69 ft | 2 kts | 45° |
| 2026-04-30 06:48 | 37.55714 | 126.80261 | 69 ft | 2 kts | 45° |
| 2026-04-30 06:48 | 37.55703 | 126.80248 | 69 ft | 2 kts | 45° |
| 2026-04-30 06:49 | 37.55695 | 126.80232 | 69 ft | 2 kts | 81° |
| 2026-04-30 06:49 | 37.55697 | 126.80213 | 69 ft | 2 kts | 119° |
| 2026-04-30 06:49 | 37.55701 | 126.80205 | 69 ft | 0 kts | 139° |
| 2026-04-30 06:49 | 37.55705 | 126.80201 | 69 ft | 0 kts | 135° |
| 2026-04-30 06:52 | 37.55705 | 126.80202 | 69 ft | 0 kts | 135° |
| 2026-04-30 07:01 | 37.55698 | 126.80209 | 69 ft | 4 kts | 135° |
| 2026-04-30 07:01 | 37.55655 | 126.80263 | 68 ft | 14 kts | 136° |
| 2026-04-30 07:01 | 37.55568 | 126.80294 | 64 ft | 0 kts | 212° |
| 2026-04-30 07:07 | 37.55561 | 126.80288 | 64 ft | 4 kts | 217° |
| 2026-04-30 07:07 | 37.55528 | 126.80253 | 64 ft | 8 kts | 221° |
| 2026-04-30 07:08 | 37.55477 | 126.80190 | 64 ft | 11 kts | 217° |
| 2026-04-30 07:08 | 37.55403 | 126.80218 | 62 ft | 14 kts | 136° |
| 2026-04-30 07:08 | 37.55325 | 126.80315 | 59 ft | 14 kts | 135° |
| 2026-04-30 07:08 | 37.55258 | 126.80399 | 57 ft | 13 kts | 136° |
| 2026-04-30 07:09 | 37.55195 | 126.80478 | 56 ft | 12 kts | 135° |
| 2026-04-30 07:09 | 37.55133 | 126.80556 | 56 ft | 12 kts | 136° |
| 2026-04-30 07:09 | 37.55070 | 126.80635 | 56 ft | 13 kts | 134° |
| 2026-04-30 07:09 | 37.54999 | 126.80724 | 55 ft | 16 kts | 137° |
| 2026-04-30 07:10 | 37.54917 | 126.80810 | 55 ft | 13 kts | 158° |
| 2026-04-30 07:10 | 37.54847 | 126.80781 | 54 ft | 10 kts | 221° |
| 2026-04-30 07:10 | 37.54798 | 126.80709 | 52 ft | 10 kts | 257° |
| 2026-04-30 07:10 | 37.54805 | 126.80677 | 52 ft | 0 kts | 309° |
| 2026-04-30 07:11 | 37.54830 | 126.80642 | 52 ft | 13 kts | 314° |
| 2026-04-30 07:11 | 37.55054 | 126.80353 | 56 ft | 83 kts | 314° |
| 2026-04-30 07:11 | 37.55630 | 126.79620 | 66 ft | 148 kts | 313° |
| 2026-04-30 07:12 | 37.56521 | 126.78624 | 227 ft | 187 kts | 321° |
| 2026-04-30 07:12 | 37.57640 | 126.77698 | 779 ft | 209 kts | 329° |
| 2026-04-30 07:12 | 37.58966 | 126.76659 | 1244 ft | 237 kts | 319° |
| 2026-04-30 07:12 | 37.60094 | 126.75033 | 1940 ft | 255 kts | 301° |
| 2026-04-30 07:13 | 37.60983 | 126.73144 | 2940 ft | 261 kts | 303° |
| 2026-04-30 07:13 | 37.62140 | 126.71294 | 3919 ft | 268 kts | 303° |
| 2026-04-30 07:13 | 37.62920 | 126.69290 | 4974 ft | 259 kts | 282° |
| 2026-04-30 07:13 | 37.62883 | 126.67007 | 5021 ft | 264 kts | 252° |
| 2026-04-30 07:14 | 37.61852 | 126.65067 | 5204 ft | 279 kts | 226° |
| 2026-04-30 07:14 | 37.60268 | 126.63776 | 6410 ft | 278 kts | 204° |
| 2026-04-30 07:14 | 37.58358 | 126.63462 | 7403 ft | 288 kts | 176° |
| 2026-04-30 07:14 | 37.56429 | 126.63959 | 8515 ft | 286 kts | 172° |
| 2026-04-30 07:15 | 37.54455 | 126.64441 | 9357 ft | 292 kts | 174° |
| 2026-04-30 07:15 | 37.52454 | 126.64883 | 10245 ft | 295 kts | 174° |
| 2026-04-30 07:15 | 37.50398 | 126.65340 | 10637 ft | 317 kts | 174° |
| 2026-04-30 07:15 | 37.48134 | 126.65842 | 10900 ft | 341 kts | 173° |
| 2026-04-30 07:16 | 37.45757 | 126.66369 | 11104 ft | 364 kts | 173° |
| 2026-04-30 07:16 | 37.43164 | 126.66943 | 11507 ft | 380 kts | 173° |
| 2026-04-30 07:16 | 37.40545 | 126.67526 | 12078 ft | 389 kts | 173° |
| 2026-04-30 07:16 | 37.37867 | 126.68119 | 12835 ft | 392 kts | 174° |
| 2026-04-30 07:17 | 37.35206 | 126.68708 | 13452 ft | 398 kts | 174° |
| 2026-04-30 07:17 | 37.32449 | 126.69317 | 14148 ft | 401 kts | 174° |
| 2026-04-30 07:17 | 37.26917 | 126.70536 | 15433 ft | 409 kts | 175° |
| 2026-04-30 07:18 | 37.24114 | 126.71153 | 16042 ft | 413 kts | 175° |
| 2026-04-30 07:18 | 37.21302 | 126.71771 | 16632 ft | 417 kts | 175° |
| 2026-04-30 07:18 | 37.18427 | 126.72403 | 17198 ft | 420 kts | 175° |
| 2026-04-30 07:18 | 37.15557 | 126.73033 | 17751 ft | 424 kts | 175° |
| 2026-04-30 07:19 | 37.12633 | 126.73675 | 18292 ft | 427 kts | 176° |
| 2026-04-30 07:19 | 37.09737 | 126.74309 | 18830 ft | 430 kts | 176° |
| 2026-04-30 07:19 | 37.06759 | 126.74963 | 19390 ft | 432 kts | 175° |
| 2026-04-30 07:19 | 37.03802 | 126.75609 | 19920 ft | 435 kts | 175° |
| 2026-04-30 07:20 | 37.00852 | 126.76253 | 20419 ft | 437 kts | 175° |
| 2026-04-30 07:20 | 36.97827 | 126.76914 | 20927 ft | 440 kts | 175° |
| 2026-04-30 07:20 | 36.94806 | 126.77574 | 21393 ft | 442 kts | 175° |
| 2026-04-30 07:20 | 36.91785 | 126.78233 | 21818 ft | 445 kts | 175° |
| 2026-04-30 07:21 | 36.88706 | 126.78904 | 22268 ft | 448 kts | 175° |
| 2026-04-30 07:21 | 36.85662 | 126.79568 | 22677 ft | 450 kts | 175° |
| 2026-04-30 07:21 | 36.82570 | 126.80241 | 23076 ft | 453 kts | 175° |
| 2026-04-30 07:21 | 36.79451 | 126.80919 | 23474 ft | 456 kts | 176° |
| 2026-04-30 07:22 | 36.73157 | 126.82242 | 23931 ft | 457 kts | 178° |
| 2026-04-30 07:22 | 36.70049 | 126.82556 | 23949 ft | 453 kts | 184° |
| 2026-04-30 07:22 | 36.66904 | 126.82655 | 23945 ft | 453 kts | 185° |
| 2026-04-30 07:23 | 36.63743 | 126.82764 | 23937 ft | 453 kts | 184° |
| 2026-04-30 07:23 | 36.60595 | 126.82902 | 23939 ft | 453 kts | 184° |
| 2026-04-30 07:23 | 36.57454 | 126.83037 | 23945 ft | 453 kts | 184° |
| 2026-04-30 07:23 | 36.54322 | 126.83163 | 23950 ft | 452 kts | 184° |
| 2026-04-30 07:24 | 36.51174 | 126.83285 | 23955 ft | 452 kts | 184° |
| 2026-04-30 07:24 | 36.48016 | 126.83407 | 23960 ft | 452 kts | 184° |
| 2026-04-30 07:24 | 36.44907 | 126.83525 | 23964 ft | 452 kts | 184° |
| 2026-04-30 07:24 | 36.41756 | 126.83645 | 23968 ft | 451 kts | 184° |
| 2026-04-30 07:25 | 36.38612 | 126.83723 | 23970 ft | 449 kts | 187° |
| 2026-04-30 07:25 | 36.35543 | 126.83489 | 23977 ft | 445 kts | 191° |
| 2026-04-30 07:25 | 36.32466 | 126.83105 | 23980 ft | 445 kts | 191° |
| 2026-04-30 07:25 | 36.29432 | 126.82756 | 23981 ft | 445 kts | 191° |
| 2026-04-30 07:26 | 36.26314 | 126.82423 | 23981 ft | 446 kts | 191° |
| 2026-04-30 07:26 | 36.23214 | 126.82089 | 23981 ft | 445 kts | 191° |
| 2026-04-30 07:26 | 36.20144 | 126.81754 | 23982 ft | 446 kts | 191° |
| 2026-04-30 07:26 | 36.17067 | 126.81419 | 23981 ft | 445 kts | 191° |
| 2026-04-30 07:27 | 36.14015 | 126.81088 | 23981 ft | 446 kts | 191° |
| 2026-04-30 07:27 | 36.10925 | 126.80753 | 23981 ft | 445 kts | 191° |
| 2026-04-30 07:27 | 36.07816 | 126.80415 | 23981 ft | 445 kts | 191° |
| 2026-04-30 07:27 | 36.04752 | 126.80082 | 23981 ft | 446 kts | 191° |
| 2026-04-30 07:28 | 36.01692 | 126.79750 | 23981 ft | 446 kts | 191° |
| 2026-04-30 07:28 | 35.98610 | 126.79417 | 23981 ft | 446 kts | 191° |
| 2026-04-30 07:28 | 35.95524 | 126.79082 | 23981 ft | 445 kts | 191° |
| 2026-04-30 07:28 | 35.92437 | 126.78748 | 23981 ft | 445 kts | 191° |
| 2026-04-30 07:29 | 35.89367 | 126.78416 | 23981 ft | 445 kts | 191° |
| 2026-04-30 07:29 | 35.86282 | 126.78082 | 23981 ft | 446 kts | 191° |
| 2026-04-30 07:29 | 35.83194 | 126.77747 | 23981 ft | 446 kts | 191° |
| 2026-04-30 07:29 | 35.80119 | 126.77415 | 23981 ft | 445 kts | 191° |
| 2026-04-30 07:30 | 35.73970 | 126.76750 | 23981 ft | 445 kts | 191° |
| 2026-04-30 07:30 | 35.70877 | 126.76415 | 23981 ft | 445 kts | 191° |
| 2026-04-30 07:30 | 35.67824 | 126.76086 | 23981 ft | 446 kts | 191° |
| 2026-04-30 07:31 | 35.64706 | 126.75749 | 23981 ft | 446 kts | 191° |
| 2026-04-30 07:31 | 35.61619 | 126.75417 | 23981 ft | 446 kts | 191° |
| 2026-04-30 07:31 | 35.58554 | 126.75087 | 23981 ft | 445 kts | 191° |
| 2026-04-30 07:31 | 35.55479 | 126.74757 | 23981 ft | 446 kts | 191° |
| 2026-04-30 07:32 | 35.52404 | 126.74425 | 23981 ft | 445 kts | 191° |
| 2026-04-30 07:32 | 35.49310 | 126.74094 | 23982 ft | 445 kts | 191° |
| 2026-04-30 07:32 | 35.46245 | 126.73765 | 23985 ft | 445 kts | 191° |
| 2026-04-30 07:32 | 35.43166 | 126.73435 | 23986 ft | 445 kts | 191° |
| 2026-04-30 07:33 | 35.40083 | 126.73105 | 23989 ft | 445 kts | 191° |
| 2026-04-30 07:33 | 35.37016 | 126.72777 | 23991 ft | 445 kts | 191° |
| 2026-04-30 07:33 | 35.33952 | 126.72450 | 23993 ft | 445 kts | 191° |
| 2026-04-30 07:33 | 35.30856 | 126.72119 | 23993 ft | 445 kts | 191° |
| 2026-04-30 07:34 | 35.27761 | 126.71789 | 23993 ft | 446 kts | 191° |
| 2026-04-30 07:34 | 35.24704 | 126.71463 | 23993 ft | 446 kts | 191° |
| 2026-04-30 07:34 | 35.21632 | 126.71136 | 23992 ft | 445 kts | 191° |
| 2026-04-30 07:34 | 35.18531 | 126.70806 | 23992 ft | 445 kts | 191° |
| 2026-04-30 07:35 | 35.15483 | 126.70482 | 23993 ft | 445 kts | 191° |
| 2026-04-30 07:35 | 35.12367 | 126.70149 | 23891 ft | 448 kts | 191° |
| 2026-04-30 07:35 | 35.09258 | 126.69817 | 23634 ft | 451 kts | 191° |
| 2026-04-30 07:35 | 35.06147 | 126.69486 | 23388 ft | 452 kts | 191° |
| 2026-04-30 07:36 | 35.03029 | 126.69157 | 23138 ft | 450 kts | 190° |
| 2026-04-30 07:36 | 34.99909 | 126.68828 | 22886 ft | 447 kts | 190° |
| 2026-04-30 07:36 | 34.96872 | 126.68508 | 22637 ft | 441 kts | 189° |
| 2026-04-30 07:36 | 34.93805 | 126.68184 | 22384 ft | 437 kts | 189° |
| 2026-04-30 07:37 | 34.90809 | 126.67866 | 22135 ft | 434 kts | 188° |
| 2026-04-30 07:37 | 34.87829 | 126.67551 | 21886 ft | 432 kts | 188° |
| 2026-04-30 07:37 | 34.84855 | 126.67238 | 21636 ft | 430 kts | 188° |
| 2026-04-30 07:37 | 34.81843 | 126.66920 | 21382 ft | 429 kts | 187° |
| 2026-04-30 07:38 | 34.78885 | 126.66608 | 21132 ft | 428 kts | 187° |
| 2026-04-30 07:38 | 34.75969 | 126.66300 | 20885 ft | 427 kts | 187° |
| 2026-04-30 07:38 | 34.72989 | 126.65987 | 20632 ft | 425 kts | 187° |
| 2026-04-30 07:38 | 34.70079 | 126.65680 | 20384 ft | 424 kts | 187° |
| 2026-04-30 07:39 | 34.67148 | 126.65372 | 20133 ft | 423 kts | 187° |
| 2026-04-30 07:39 | 34.64236 | 126.65066 | 19883 ft | 421 kts | 187° |
| 2026-04-30 07:39 | 34.61305 | 126.64758 | 19631 ft | 420 kts | 187° |
| 2026-04-30 07:39 | 34.58387 | 126.64452 | 19379 ft | 419 kts | 187° |
| 2026-04-30 07:40 | 34.55505 | 126.64149 | 19129 ft | 417 kts | 187° |
| 2026-04-30 07:40 | 34.52601 | 126.63845 | 18877 ft | 416 kts | 187° |
| 2026-04-30 07:40 | 34.49708 | 126.63542 | 18625 ft | 415 kts | 187° |
| 2026-04-30 07:40 | 34.46861 | 126.63245 | 18377 ft | 414 kts | 187° |
| 2026-04-30 07:41 | 34.43970 | 126.62942 | 18123 ft | 412 kts | 187° |
| 2026-04-30 07:41 | 34.41114 | 126.62644 | 17872 ft | 411 kts | 187° |
| 2026-04-30 07:41 | 34.38277 | 126.62348 | 17617 ft | 409 kts | 186° |
| 2026-04-30 07:41 | 34.35487 | 126.62058 | 16875 ft | 403 kts | 186° |
| 2026-04-30 07:42 | 34.32703 | 126.61768 | 16069 ft | 398 kts | 186° |
| 2026-04-30 07:42 | 34.29984 | 126.61485 | 15290 ft | 393 kts | 186° |
| 2026-04-30 07:42 | 34.27256 | 126.61348 | 14532 ft | 390 kts | 181° |
| 2026-04-30 07:42 | 34.24563 | 126.61500 | 14046 ft | 389 kts | 174° |
| 2026-04-30 07:43 | 34.21853 | 126.62034 | 13936 ft | 389 kts | 170° |
| 2026-04-30 07:43 | 34.19244 | 126.62656 | 13314 ft | 385 kts | 169° |
| 2026-04-30 07:43 | 34.16586 | 126.63285 | 12572 ft | 389 kts | 169° |
| 2026-04-30 07:43 | 34.13959 | 126.63917 | 11854 ft | 382 kts | 169° |
| 2026-04-30 07:44 | 34.11398 | 126.64546 | 11369 ft | 370 kts | 169° |
| 2026-04-30 07:44 | 34.08930 | 126.65155 | 11074 ft | 354 kts | 169° |
| 2026-04-30 07:44 | 34.06569 | 126.65739 | 10914 ft | 336 kts | 169° |
| 2026-04-30 07:44 | 34.04342 | 126.66292 | 10741 ft | 320 kts | 169° |
| 2026-04-30 07:45 | 34.02186 | 126.66828 | 10569 ft | 307 kts | 169° |
| 2026-04-30 07:45 | 34.00134 | 126.67339 | 10404 ft | 294 kts | 169° |
| 2026-04-30 07:45 | 33.98184 | 126.67825 | 10246 ft | 283 kts | 169° |
| 2026-04-30 07:45 | 33.96270 | 126.68301 | 9991 ft | 276 kts | 169° |
| 2026-04-30 07:46 | 33.94393 | 126.68769 | 9626 ft | 274 kts | 169° |
| 2026-04-30 07:46 | 33.92564 | 126.69224 | 9271 ft | 272 kts | 169° |
| 2026-04-30 07:46 | 33.90706 | 126.69687 | 8912 ft | 270 kts | 169° |
| 2026-04-30 07:46 | 33.88873 | 126.70143 | 8558 ft | 268 kts | 169° |
| 2026-04-30 07:47 | 33.87040 | 126.70599 | 8204 ft | 266 kts | 169° |
| 2026-04-30 07:47 | 33.85243 | 126.71046 | 7858 ft | 264 kts | 169° |
| 2026-04-30 07:47 | 33.83422 | 126.71498 | 7508 ft | 262 kts | 169° |
| 2026-04-30 07:47 | 33.81641 | 126.71941 | 7165 ft | 261 kts | 169° |
| 2026-04-30 07:48 | 33.79864 | 126.72382 | 6823 ft | 259 kts | 169° |
| 2026-04-30 07:48 | 33.78075 | 126.72825 | 6483 ft | 264 kts | 169° |
| 2026-04-30 07:48 | 33.76287 | 126.73269 | 6135 ft | 263 kts | 169° |
| 2026-04-30 07:48 | 33.74510 | 126.73710 | 5791 ft | 261 kts | 169° |
| 2026-04-30 07:49 | 33.72724 | 126.74152 | 5585 ft | 253 kts | 169° |
| 2026-04-30 07:49 | 33.71055 | 126.74567 | 5510 ft | 240 kts | 169° |
| 2026-04-30 07:49 | 33.69432 | 126.74969 | 5426 ft | 229 kts | 169° |
| 2026-04-30 07:49 | 33.67911 | 126.75346 | 5350 ft | 217 kts | 169° |
| 2026-04-30 07:50 | 33.66467 | 126.75677 | 5264 ft | 204 kts | 177° |
| 2026-04-30 07:50 | 33.65099 | 126.75402 | 5161 ft | 202 kts | 209° |
| 2026-04-30 07:50 | 33.64032 | 126.74319 | 4938 ft | 202 kts | 231° |
| 2026-04-30 07:50 | 33.63176 | 126.72981 | 4659 ft | 201 kts | 238° |
| 2026-04-30 07:51 | 33.62504 | 126.71509 | 4369 ft | 198 kts | 245° |
| 2026-04-30 07:51 | 33.61863 | 126.70080 | 4121 ft | 193 kts | 241° |
| 2026-04-30 07:51 | 33.61184 | 126.68718 | 3817 ft | 189 kts | 240° |
| 2026-04-30 07:51 | 33.60506 | 126.67382 | 3559 ft | 185 kts | 240° |
| 2026-04-30 07:52 | 33.59835 | 126.66067 | 3317 ft | 183 kts | 240° |
| 2026-04-30 07:52 | 33.59186 | 126.64796 | 3045 ft | 176 kts | 240° |
| 2026-04-30 07:52 | 33.58555 | 126.63561 | 2823 ft | 171 kts | 240° |
| 2026-04-30 07:52 | 33.57930 | 126.62338 | 2584 ft | 170 kts | 240° |
| 2026-04-30 07:53 | 33.57321 | 126.61149 | 2332 ft | 163 kts | 240° |
| 2026-04-30 07:53 | 33.56734 | 126.60001 | 2135 ft | 159 kts | 240° |
| 2026-04-30 07:53 | 33.56173 | 126.58905 | 1904 ft | 151 kts | 241° |
| 2026-04-30 07:53 | 33.55637 | 126.57858 | 1696 ft | 147 kts | 241° |
| 2026-04-30 07:54 | 33.55083 | 126.56771 | 1589 ft | 161 kts | 242° |
| 2026-04-30 07:54 | 33.54559 | 126.55623 | 1446 ft | 156 kts | 247° |
| 2026-04-30 07:54 | 33.54013 | 126.54551 | 1171 ft | 148 kts | 236° |
| 2026-04-30 07:54 | 33.53413 | 126.53559 | 797 ft | 146 kts | 238° |
| 2026-04-30 07:55 | 33.52865 | 126.52565 | 609 ft | 142 kts | 241° |
| 2026-04-30 07:55 | 33.52348 | 126.51543 | 502 ft | 143 kts | 243° |
| 2026-04-30 07:55 | 33.51843 | 126.50494 | 311 ft | 148 kts | 242° |
| 2026-04-30 07:55 | 33.51310 | 126.49426 | 142 ft | 148 kts | 240° |
| 2026-04-30 07:56 | 33.50850 | 126.48474 | 128 ft | 98 kts | 248° |